Chicago, Illinois
Current Conditions -  °F | °C
As of 7:53 PM on Wednesday 17 Dec 2014 (Local Time) from KMDW Reporting Station
Broken Clouds Broken Clouds  
Wind Chill: 18°   Ceiling: 2500
Heat Index: 26°   Visibility: 10mi
Dew Point: 16°   Wind: 8mph
Humidity: 66%   Direction: 310°NW
Pressure: 30.27"   Gusts: NA
Location:  41.88°N, 87.63°W
Report Text: KMDW 180153Z 31007KT 10SM BKN025 M03/M09 A3027 RMK AO2 SLP266 T10331089
Loading
Personal Weather Stations






























Interactive Weather Map New forecast layout! Learn more

10-Day Weather Forecast

Advertisements
Track Severe Weather on mobile